createdAt,value
2019-04-07T00:05:17.411Z,28.40
2019-04-07T00:20:30.872Z,26.27
2019-04-07T00:54:21.809Z,29.00
2019-04-07T00:57:08.958Z,24.80
2019-04-07T00:59:56.114Z,26.50
2019-04-07T01:15:07.796Z,29.10
2019-04-07T01:17:55.007Z,27.27
2019-04-07T01:20:41.888Z,29.40
2019-04-07T01:23:29.337Z,27.80
2019-04-07T01:26:17.362Z,34.90
2019-04-07T01:29:04.621Z,32.87
2019-04-07T01:31:58.602Z,34.10
2019-04-07T02:40:03.273Z,27.98
2019-04-07T02:42:48.519Z,28.15
2019-04-07T02:45:35.243Z,27.33
2019-04-07T04:18:37.612Z,30.53
2019-04-07T04:21:24.502Z,29.10
2019-04-07T04:36:36.058Z,29.20
2019-04-07T04:39:22.933Z,31.00
2019-04-07T04:42:10.438Z,33.90
2019-04-07T04:44:56.785Z,37.30
2019-04-07T04:57:09.341Z,27.00
2019-04-07T04:59:55.977Z,27.70
2019-04-07T05:12:08.384Z,15.33
2019-04-07T05:14:58.896Z,22.33
2019-04-07T05:17:52.621Z,18.57
2019-04-07T06:00:57.665Z,37.30
2019-04-07T06:03:44.521Z,35.03
2019-04-07T06:06:31.692Z,37.00
2019-04-07T06:12:26.357Z,36.00
2019-04-07T06:15:15.740Z,37.83
2019-04-07T06:18:01.524Z,36.47
2019-04-07T06:20:48.494Z,36.80
2019-04-07T06:23:35.358Z,34.77
2019-04-07T06:45:02.028Z,38.50
2019-04-07T06:47:51.921Z,35.13
2019-04-07T06:50:57.785Z,37.07
2019-04-07T06:53:38.164Z,37.73
2019-04-07T06:59:40.575Z,35.93
2019-04-07T07:06:01.193Z,32.88
2019-04-07T07:08:57.314Z,36.45
2019-04-07T07:11:59.346Z,32.83
2019-04-07T07:21:05.093Z,33.65
2019-04-07T07:30:12.094Z,32.63
2019-04-07T07:33:12.688Z,29.15
2019-04-07T07:35:59.546Z,31.92
2019-04-07T07:38:57.530Z,30.90
2019-04-07T07:47:54.869Z,28.55
2019-04-07T07:50:43.693Z,26.77
2019-04-07T07:53:44.961Z,26.67
2019-04-07T07:56:32.170Z,28.77
2019-04-07T07:59:19.996Z,26.83
2019-04-07T08:05:12.520Z,28.92
2019-04-07T08:08:00.599Z,27.65
2019-04-07T08:10:47.348Z,24.95
2019-04-07T08:13:41.770Z,25.73
2019-04-07T08:16:20.594Z,23.95
2019-04-07T08:19:09.391Z,23.87
2019-04-07T08:21:54.443Z,22.08
2019-04-07T08:24:41.550Z,21.10
2019-04-07T08:27:31.042Z,22.23
2019-04-07T08:30:15.332Z,23.00
2019-04-07T08:33:03.483Z,22.62
2019-04-07T08:35:50.228Z,24.45
2019-04-07T08:38:37.588Z,23.02
2019-04-07T08:41:24.473Z,22.27
2019-04-07T08:44:11.491Z,22.85
2019-04-07T08:46:58.194Z,22.05
2019-04-07T08:49:45.030Z,22.02
2019-04-07T08:52:32.200Z,22.25
2019-04-07T08:55:20.446Z,22.00
2019-04-07T08:58:06.670Z,21.25
2019-04-07T09:00:53.965Z,22.48
2019-04-07T09:03:44.451Z,20.15
2019-04-07T09:06:41.506Z,19.05
2019-04-07T09:09:34.474Z,19.67
2019-04-07T09:12:15.485Z,19.00
2019-04-07T09:15:04.368Z,17.25
2019-04-07T09:18:03.391Z,18.37
2019-04-07T09:21:10.162Z,18.92
2019-04-07T09:23:59.216Z,18.45
2019-04-07T09:26:54.475Z,17.17
2019-04-07T09:29:47.847Z,16.65
2019-04-07T09:32:41.637Z,17.50
2019-04-07T09:35:47.589Z,17.35
2019-04-07T09:38:45.962Z,17.42
2019-04-07T09:41:45.119Z,17.95
2019-04-07T09:44:43.810Z,17.55
2019-04-07T09:47:37.982Z,17.35
2019-04-07T09:53:50.525Z,16.85
2019-04-07T09:56:41.811Z,15.88
2019-04-07T09:59:35.022Z,14.60
2019-04-07T10:02:39.967Z,18.02
2019-04-07T10:05:26.792Z,15.27
2019-04-07T10:08:26.501Z,16.02
2019-04-07T10:11:17.141Z,15.05
2019-04-07T10:14:12.734Z,15.27
2019-04-07T10:17:05.457Z,15.25
2019-04-07T10:19:55.614Z,16.15
2019-04-07T10:22:42.978Z,14.73
2019-04-07T10:25:39.125Z,17.37
2019-04-07T10:28:44.181Z,20.35
2019-04-07T10:31:49.430Z,17.37
2019-04-07T10:38:04.008Z,21.35
2019-04-07T10:40:54.357Z,19.27
2019-04-07T10:43:56.192Z,22.27
2019-04-07T10:47:01.540Z,27.00
2019-04-07T10:50:08.783Z,23.60
2019-04-07T10:53:06.695Z,21.83
2019-04-07T10:56:12.720Z,24.30
2019-04-07T10:59:12.568Z,24.37
2019-04-07T11:05:26.068Z,21.65
2019-04-07T11:08:18.255Z,22.60
2019-04-07T11:11:23.153Z,25.52
2019-04-07T11:14:29.388Z,21.80
2019-04-07T11:17:19.378Z,25.05
2019-04-07T11:20:06.006Z,19.27
2019-04-07T11:22:59.088Z,21.73
2019-04-07T11:26:04.544Z,21.02
2019-04-07T11:28:53.759Z,19.35
2019-04-07T11:31:40.911Z,21.23
2019-04-07T11:38:00.351Z,22.42
2019-04-07T11:41:03.452Z,19.48
2019-04-07T11:43:53.385Z,18.12
2019-04-07T11:46:58.239Z,16.17
2019-04-07T11:49:46.104Z,16.95
2019-04-07T11:52:33.337Z,15.57
2019-04-07T11:55:26.204Z,16.02
2019-04-07T11:58:33.410Z,17.37
2019-04-07T12:01:24.209Z,14.40
2019-04-07T12:04:13.961Z,15.98
2019-04-07T12:07:19.093Z,15.73
2019-04-07T12:10:06.502Z,17.50
2019-04-07T12:13:00.201Z,15.38
2019-04-07T12:15:46.353Z,20.08
2019-04-07T12:18:36.398Z,16.55
2019-04-07T12:21:25.456Z,20.25
2019-04-07T12:24:25.928Z,18.02
2019-04-07T12:27:23.931Z,21.17
2019-04-07T12:30:13.253Z,23.00
2019-04-07T12:33:09.008Z,18.35
2019-04-07T12:36:14.335Z,19.08
2019-04-07T12:39:01.778Z,19.23
2019-04-07T12:42:08.302Z,21.10
2019-04-07T12:44:55.976Z,21.20
2019-04-07T12:47:45.949Z,19.00
2019-04-07T12:50:33.809Z,19.73
2019-04-07T12:53:38.969Z,23.35
2019-04-07T12:56:43.516Z,22.30
2019-04-07T12:59:33.700Z,20.30
2019-04-07T13:02:27.169Z,23.95
2019-04-07T13:05:34.592Z,20.12
2019-04-07T13:08:24.007Z,20.00
2019-04-07T13:11:24.685Z,19.02
2019-04-07T13:14:03.631Z,18.87
2019-04-07T13:17:07.340Z,18.05
2019-04-07T13:19:53.477Z,18.87
2019-04-07T13:22:49.966Z,19.65
2019-04-07T13:25:37.496Z,19.10
2019-04-07T13:28:27.193Z,20.00
2019-04-07T13:31:26.371Z,18.77
2019-04-07T13:34:31.067Z,17.52
2019-04-07T13:40:31.721Z,17.67
2019-04-07T13:43:19.027Z,17.45
2019-04-07T13:46:37.951Z,19.60
2019-04-07T13:49:42.202Z,19.10
2019-04-07T13:52:32.378Z,19.48
2019-04-07T13:55:40.942Z,17.48
2019-04-07T13:58:32.967Z,18.95
2019-04-07T14:01:18.592Z,17.77
2019-04-07T14:04:16.737Z,16.50
2019-04-07T14:07:21.912Z,17.08
2019-04-07T14:10:14.662Z,18.23
2019-04-07T14:13:06.227Z,15.57
2019-04-07T14:16:07.480Z,17.27
2019-04-07T14:19:03.602Z,17.20
2019-04-07T14:22:03.300Z,16.42
2019-04-07T14:24:52.708Z,15.27
2019-04-07T14:27:47.322Z,15.43
2019-04-07T14:30:49.905Z,16.00
2019-04-07T14:33:55.653Z,17.30
2019-04-07T14:36:45.764Z,16.42
2019-04-07T14:39:33.393Z,16.00
2019-04-07T14:42:20.436Z,17.48
2019-04-07T14:45:27.080Z,15.07
2019-04-07T14:48:31.488Z,16.20
2019-04-07T14:51:21.546Z,14.40
2019-04-07T14:54:19.511Z,15.38
2019-04-07T14:57:15.428Z,16.12
2019-04-07T15:00:02.169Z,16.95
2019-04-07T15:02:49.852Z,15.50
2019-04-07T15:05:45.064Z,13.68
2019-04-07T15:08:32.934Z,14.03
2019-04-07T15:11:25.745Z,13.62
2019-04-07T15:14:13.571Z,16.00
2019-04-07T15:17:00.378Z,16.77
2019-04-07T15:19:47.727Z,14.68
2019-04-07T15:22:34.619Z,13.85
2019-04-07T15:25:21.551Z,14.85
2019-04-07T15:28:09.017Z,16.67
2019-04-07T15:30:56.819Z,15.10
2019-04-07T15:33:43.518Z,16.42
2019-04-07T15:36:31.115Z,15.32
2019-04-07T15:39:18.286Z,16.00
2019-04-07T15:42:06.509Z,16.45
2019-04-07T15:48:00.594Z,13.13
2019-04-07T15:50:46.284Z,13.20
2019-04-07T15:53:51.529Z,12.85
2019-04-07T15:56:34.368Z,13.38
2019-04-07T15:59:21.626Z,13.50
2019-04-07T16:02:10.824Z,13.27
2019-04-07T16:05:03.709Z,13.40
2019-04-07T16:07:53.192Z,15.23
2019-04-07T16:10:36.331Z,14.70
2019-04-07T16:13:23.858Z,19.02
2019-04-07T16:16:10.085Z,17.67
2019-04-07T16:18:57.983Z,15.95
2019-04-07T16:21:45.699Z,14.02
2019-04-07T16:24:32.770Z,15.43
2019-04-07T16:27:19.600Z,15.63
2019-04-07T16:30:08.548Z,15.13
2019-04-07T16:32:54.842Z,16.33
2019-04-07T16:35:43.931Z,15.40
2019-04-07T16:38:30.210Z,19.83
2019-04-07T16:41:16.760Z,14.13
2019-04-07T16:44:07.006Z,16.33
2019-04-07T16:46:54.673Z,15.95
2019-04-07T16:49:38.239Z,19.27
2019-04-07T16:52:26.567Z,15.13
2019-04-07T16:55:31.504Z,15.48
2019-04-07T17:01:25.423Z,15.07
2019-04-07T17:04:14.796Z,17.02
2019-04-07T17:07:05.021Z,18.15
2019-04-07T17:09:48.937Z,18.62
2019-04-07T17:12:43.916Z,17.48
2019-04-07T17:15:30.039Z,16.02
2019-04-07T17:18:35.589Z,17.35
2019-04-07T17:21:22.901Z,17.50
2019-04-07T17:24:11.115Z,14.98
2019-04-07T17:26:58.233Z,18.25
2019-04-07T17:29:46.751Z,17.30
2019-04-07T17:32:35.459Z,15.70
2019-04-07T17:35:19.402Z,19.15
2019-04-07T17:38:06.876Z,20.58
2019-04-07T17:40:53.351Z,14.93
2019-04-07T17:43:49.426Z,20.15
2019-04-07T17:46:36.597Z,18.10
2019-04-07T17:49:26.316Z,19.77
2019-04-07T17:52:29.115Z,16.98
2019-04-07T17:55:25.257Z,18.45
2019-04-07T17:58:10.046Z,19.45
2019-04-07T18:00:56.527Z,20.23
2019-04-07T18:03:47.325Z,17.37
2019-04-07T18:09:44.918Z,17.33
2019-04-07T18:12:45.454Z,20.23
2019-04-07T18:15:36.270Z,17.95
2019-04-07T18:18:30.403Z,17.60
2019-04-07T18:21:35.029Z,17.92
2019-04-07T18:24:22.698Z,33.65
2019-04-07T18:27:17.123Z,21.10
2019-04-07T18:30:08.311Z,22.40
2019-04-07T18:32:54.263Z,17.12
2019-04-07T18:35:44.160Z,19.95
2019-04-07T18:41:52.083Z,17.90
2019-04-07T18:44:41.221Z,18.25
2019-04-07T18:51:13.228Z,16.80
2019-04-07T18:54:00.355Z,18.90
2019-04-07T18:56:59.192Z,16.87
2019-04-07T19:00:03.883Z,17.50
2019-04-07T19:03:00.433Z,17.73
2019-04-07T19:06:06.034Z,15.45
2019-04-07T19:08:54.383Z,14.15
2019-04-07T19:11:47.026Z,16.35
2019-04-07T19:14:44.480Z,15.05
2019-04-07T19:17:28.171Z,18.37
2019-04-07T19:20:34.125Z,15.82
2019-04-07T19:23:27.170Z,15.48
2019-04-07T19:29:43.900Z,18.67
2019-04-07T19:32:38.811Z,18.73
2019-04-07T19:35:28.249Z,16.05
2019-04-07T19:41:11.038Z,18.75
2019-04-07T19:43:58.386Z,20.62
2019-04-07T19:46:48.653Z,18.70
2019-04-07T19:49:38.970Z,17.67
2019-04-07T19:52:43.896Z,18.35
2019-04-07T19:55:40.778Z,20.70
2019-04-07T19:58:45.648Z,20.30
2019-04-07T20:01:42.210Z,18.77
2019-04-07T20:04:28.767Z,17.85
2019-04-07T20:07:23.064Z,19.90
2019-04-07T20:10:28.611Z,18.33
2019-04-07T20:13:19.882Z,17.20
2019-04-07T20:19:38.237Z,17.92
2019-04-07T20:22:29.089Z,18.50
2019-04-07T20:25:35.223Z,22.23
2019-04-07T20:28:32.485Z,17.50
2019-04-07T20:34:30.831Z,20.97
2019-04-07T20:37:26.207Z,19.30
2019-04-07T20:40:23.642Z,21.55
2019-04-07T20:43:25.594Z,17.92
2019-04-07T20:46:31.612Z,20.05
2019-04-07T21:28:41.209Z,20.62
2019-04-07T21:31:28.737Z,18.70
2019-04-07T21:34:26.920Z,19.93
2019-04-07T21:56:48.873Z,18.25
2019-04-07T22:19:15.098Z,19.27
2019-04-07T22:40:42.530Z,16.20
2019-04-07T23:24:10.944Z,17.73
2019-04-07T23:26:58.529Z,20.60
2019-04-07T23:29:44.709Z,19.53
2019-04-07T23:44:56.039Z,17.67
2019-04-07T23:47:45.868Z,21.67
